sensor_id;sensor_type;location;lat;lon;timestamp;P1;durP1;ratioP1;P2;durP2;ratioP2
35847;SDS011;22332;51.954;20.118;2024-03-22T00:00:51;41.70;;;26.60;;
35847;SDS011;22332;51.954;20.118;2024-03-22T00:04:16;37.90;;;24.30;;
35847;SDS011;22332;51.954;20.118;2024-03-22T00:07:22;38.80;;;26.00;;
35847;SDS011;22332;51.954;20.118;2024-03-22T00:10:27;41.40;;;26.70;;
35847;SDS011;22332;51.954;20.118;2024-03-22T00:13:32;40.70;;;27.80;;
35847;SDS011;22332;51.954;20.118;2024-03-22T00:16:38;43.20;;;28.20;;
35847;SDS011;22332;51.954;20.118;2024-03-22T00:19:43;49.80;;;29.80;;
35847;SDS011;22332;51.954;20.118;2024-03-22T00:22:48;41.70;;;27.50;;
35847;SDS011;22332;51.954;20.118;2024-03-22T00:25:53;41.70;;;28.20;;
35847;SDS011;22332;51.954;20.118;2024-03-22T00:28:58;40.50;;;26.80;;
35847;SDS011;22332;51.954;20.118;2024-03-22T00:32:04;45.80;;;29.70;;
35847;SDS011;22332;51.954;20.118;2024-03-22T00:35:10;43.60;;;29.10;;
35847;SDS011;22332;51.954;20.118;2024-03-22T00:38:15;43.50;;;28.90;;
35847;SDS011;22332;51.954;20.118;2024-03-22T00:41:20;41.60;;;27.60;;
35847;SDS011;22332;51.954;20.118;2024-03-22T00:44:26;39.20;;;26.90;;
35847;SDS011;22332;51.954;20.118;2024-03-22T00:47:31;41.00;;;28.00;;
35847;SDS011;22332;51.954;20.118;2024-03-22T00:50:36;38.60;;;24.90;;
35847;SDS011;22332;51.954;20.118;2024-03-22T00:53:42;37.20;;;23.50;;
35847;SDS011;22332;51.954;20.118;2024-03-22T00:56:47;37.30;;;26.70;;
35847;SDS011;22332;51.954;20.118;2024-03-22T00:59:52;38.20;;;25.60;;
35847;SDS011;22332;51.954;20.118;2024-03-22T01:02:57;41.40;;;26.60;;
35847;SDS011;22332;51.954;20.118;2024-03-22T01:06:02;39.30;;;25.90;;
35847;SDS011;22332;51.954;20.118;2024-03-22T01:09:08;34.10;;;23.90;;
35847;SDS011;22332;51.954;20.118;2024-03-22T01:12:13;34.30;;;23.90;;
35847;SDS011;22332;51.954;20.118;2024-03-22T01:15:18;35.70;;;24.60;;
35847;SDS011;22332;51.954;20.118;2024-03-22T01:18:23;37.30;;;24.60;;
35847;SDS011;22332;51.954;20.118;2024-03-22T01:21:29;33.20;;;22.70;;
35847;SDS011;22332;51.954;20.118;2024-03-22T01:24:34;33.30;;;21.90;;
35847;SDS011;22332;51.954;20.118;2024-03-22T01:27:40;35.40;;;22.90;;
35847;SDS011;22332;51.954;20.118;2024-03-22T01:30:45;33.30;;;23.20;;
35847;SDS011;22332;51.954;20.118;2024-03-22T01:33:50;36.80;;;23.90;;
35847;SDS011;22332;51.954;20.118;2024-03-22T01:36:55;36.10;;;25.50;;
35847;SDS011;22332;51.954;20.118;2024-03-22T01:40:02;33.90;;;22.30;;
35847;SDS011;22332;51.954;20.118;2024-03-22T01:43:08;35.40;;;22.90;;
35847;SDS011;22332;51.954;20.118;2024-03-22T01:46:13;33.40;;;23.20;;
35847;SDS011;22332;51.954;20.118;2024-03-22T01:49:18;31.40;;;22.00;;
35847;SDS011;22332;51.954;20.118;2024-03-22T01:52:24;32.30;;;23.80;;
35847;SDS011;22332;51.954;20.118;2024-03-22T01:55:30;33.10;;;22.50;;
35847;SDS011;22332;51.954;20.118;2024-03-22T01:58:35;30.10;;;20.70;;
35847;SDS011;22332;51.954;20.118;2024-03-22T02:01:40;32.40;;;22.50;;
35847;SDS011;22332;51.954;20.118;2024-03-22T02:04:45;29.30;;;21.00;;
35847;SDS011;22332;51.954;20.118;2024-03-22T02:07:53;30.70;;;22.10;;
35847;SDS011;22332;51.954;20.118;2024-03-22T02:10:58;33.10;;;22.20;;
35847;SDS011;22332;51.954;20.118;2024-03-22T02:14:04;31.90;;;21.20;;
35847;SDS011;22332;51.954;20.118;2024-03-22T02:17:09;26.30;;;18.10;;
35847;SDS011;22332;51.954;20.118;2024-03-22T02:20:14;29.20;;;20.60;;
35847;SDS011;22332;51.954;20.118;2024-03-22T02:23:26;30.50;;;22.00;;
35847;SDS011;22332;51.954;20.118;2024-03-22T02:26:35;32.40;;;21.80;;
35847;SDS011;22332;51.954;20.118;2024-03-22T02:29:40;31.10;;;22.30;;
35847;SDS011;22332;51.954;20.118;2024-03-22T02:32:45;28.50;;;19.30;;
35847;SDS011;22332;51.954;20.118;2024-03-22T02:35:51;26.80;;;18.40;;
35847;SDS011;22332;51.954;20.118;2024-03-22T02:38:56;27.60;;;19.50;;
35847;SDS011;22332;51.954;20.118;2024-03-22T02:42:01;28.00;;;19.40;;
35847;SDS011;22332;51.954;20.118;2024-03-22T02:45:07;25.10;;;18.00;;
35847;SDS011;22332;51.954;20.118;2024-03-22T02:48:13;24.50;;;17.50;;
35847;SDS011;22332;51.954;20.118;2024-03-22T02:51:18;23.50;;;15.80;;
35847;SDS011;22332;51.954;20.118;2024-03-22T02:54:24;20.50;;;14.00;;
35847;SDS011;22332;51.954;20.118;2024-03-22T02:57:29;22.80;;;15.50;;
35847;SDS011;22332;51.954;20.118;2024-03-22T03:00:36;21.60;;;15.50;;
35847;SDS011;22332;51.954;20.118;2024-03-22T03:03:42;29.50;;;19.80;;
35847;SDS011;22332;51.954;20.118;2024-03-22T03:06:47;24.10;;;17.40;;
35847;SDS011;22332;51.954;20.118;2024-03-22T03:09:52;21.40;;;15.20;;
35847;SDS011;22332;51.954;20.118;2024-03-22T03:12:57;19.60;;;13.60;;
35847;SDS011;22332;51.954;20.118;2024-03-22T03:16:02;21.70;;;15.80;;
35847;SDS011;22332;51.954;20.118;2024-03-22T03:19:08;21.70;;;16.20;;
35847;SDS011;22332;51.954;20.118;2024-03-22T03:22:13;25.00;;;16.50;;
35847;SDS011;22332;51.954;20.118;2024-03-22T03:25:19;23.90;;;17.00;;
35847;SDS011;22332;51.954;20.118;2024-03-22T03:28:24;22.10;;;16.00;;
35847;SDS011;22332;51.954;20.118;2024-03-22T03:31:30;18.70;;;12.90;;
35847;SDS011;22332;51.954;20.118;2024-03-22T03:34:35;21.30;;;14.70;;
35847;SDS011;22332;51.954;20.118;2024-03-22T03:37:40;21.90;;;14.90;;
35847;SDS011;22332;51.954;20.118;2024-03-22T03:40:45;23.60;;;17.20;;
35847;SDS011;22332;51.954;20.118;2024-03-22T03:43:51;20.60;;;14.50;;
35847;SDS011;22332;51.954;20.118;2024-03-22T03:46:56;24.50;;;17.50;;
35847;SDS011;22332;51.954;20.118;2024-03-22T03:50:01;18.10;;;13.00;;
35847;SDS011;22332;51.954;20.118;2024-03-22T03:53:06;15.30;;;12.20;;
35847;SDS011;22332;51.954;20.118;2024-03-22T03:56:11;18.10;;;13.30;;
35847;SDS011;22332;51.954;20.118;2024-03-22T03:59:16;19.20;;;13.50;;
35847;SDS011;22332;51.954;20.118;2024-03-22T04:02:21;16.50;;;11.70;;
35847;SDS011;22332;51.954;20.118;2024-03-22T04:05:26;15.90;;;11.40;;
35847;SDS011;22332;51.954;20.118;2024-03-22T04:08:32;16.20;;;12.10;;
35847;SDS011;22332;51.954;20.118;2024-03-22T04:11:37;17.30;;;13.30;;
35847;SDS011;22332;51.954;20.118;2024-03-22T04:14:42;18.10;;;12.80;;
35847;SDS011;22332;51.954;20.118;2024-03-22T04:17:47;22.80;;;15.80;;
35847;SDS011;22332;51.954;20.118;2024-03-22T04:20:56;17.30;;;12.60;;
35847;SDS011;22332;51.954;20.118;2024-03-22T04:24:02;20.10;;;15.20;;
35847;SDS011;22332;51.954;20.118;2024-03-22T04:27:08;23.10;;;17.00;;
35847;SDS011;22332;51.954;20.118;2024-03-22T04:30:13;29.00;;;19.50;;
35847;SDS011;22332;51.954;20.118;2024-03-22T04:33:19;18.50;;;13.20;;
35847;SDS011;22332;51.954;20.118;2024-03-22T04:36:24;19.40;;;13.90;;
35847;SDS011;22332;51.954;20.118;2024-03-22T04:39:29;71.00;;;39.30;;
35847;SDS011;22332;51.954;20.118;2024-03-22T04:42:34;72.50;;;40.80;;
35847;SDS011;22332;51.954;20.118;2024-03-22T04:45:40;30.50;;;20.40;;
35847;SDS011;22332;51.954;20.118;2024-03-22T04:48:46;23.70;;;16.60;;
35847;SDS011;22332;51.954;20.118;2024-03-22T04:51:51;20.70;;;14.90;;
35847;SDS011;22332;51.954;20.118;2024-03-22T04:54:56;50.00;;;32.20;;
35847;SDS011;22332;51.954;20.118;2024-03-22T04:58:01;41.50;;;27.10;;
35847;SDS011;22332;51.954;20.118;2024-03-22T05:01:07;45.20;;;28.50;;
35847;SDS011;22332;51.954;20.118;2024-03-22T05:04:13;27.00;;;19.90;;
35847;SDS011;22332;51.954;20.118;2024-03-22T05:07:19;20.80;;;15.70;;
35847;SDS011;22332;51.954;20.118;2024-03-22T05:10:24;22.10;;;15.00;;
35847;SDS011;22332;51.954;20.118;2024-03-22T05:13:29;27.70;;;20.20;;
35847;SDS011;22332;51.954;20.118;2024-03-22T05:16:34;25.60;;;19.50;;
35847;SDS011;22332;51.954;20.118;2024-03-22T05:19:39;27.70;;;21.50;;
35847;SDS011;22332;51.954;20.118;2024-03-22T05:22:45;29.10;;;20.90;;
35847;SDS011;22332;51.954;20.118;2024-03-22T05:25:50;27.00;;;19.90;;
35847;SDS011;22332;51.954;20.118;2024-03-22T05:28:55;21.00;;;15.90;;
35847;SDS011;22332;51.954;20.118;2024-03-22T05:32:00;27.20;;;19.80;;
35847;SDS011;22332;51.954;20.118;2024-03-22T05:35:06;26.70;;;18.90;;
35847;SDS011;22332;51.954;20.118;2024-03-22T05:38:12;24.70;;;17.90;;
35847;SDS011;22332;51.954;20.118;2024-03-22T05:41:17;27.90;;;20.20;;
35847;SDS011;22332;51.954;20.118;2024-03-22T05:44:22;25.50;;;18.10;;
35847;SDS011;22332;51.954;20.118;2024-03-22T05:47:27;25.10;;;17.40;;
35847;SDS011;22332;51.954;20.118;2024-03-22T05:50:33;27.80;;;18.70;;
35847;SDS011;22332;51.954;20.118;2024-03-22T05:53:38;29.00;;;21.30;;
35847;SDS011;22332;51.954;20.118;2024-03-22T05:56:44;34.10;;;24.30;;
35847;SDS011;22332;51.954;20.118;2024-03-22T05:59:50;37.30;;;26.10;;
35847;SDS011;22332;51.954;20.118;2024-03-22T06:02:56;28.30;;;19.20;;
35847;SDS011;22332;51.954;20.118;2024-03-22T06:06:02;28.30;;;19.10;;
35847;SDS011;22332;51.954;20.118;2024-03-22T06:09:08;38.90;;;27.70;;
35847;SDS011;22332;51.954;20.118;2024-03-22T06:12:15;37.60;;;25.40;;
35847;SDS011;22332;51.954;20.118;2024-03-22T06:15:21;30.40;;;22.30;;
35847;SDS011;22332;51.954;20.118;2024-03-22T06:18:26;31.30;;;22.60;;
35847;SDS011;22332;51.954;20.118;2024-03-22T06:21:31;30.90;;;21.20;;
35847;SDS011;22332;51.954;20.118;2024-03-22T06:24:37;28.40;;;19.10;;
35847;SDS011;22332;51.954;20.118;2024-03-22T06:27:42;28.60;;;19.40;;
35847;SDS011;22332;51.954;20.118;2024-03-22T06:30:47;30.50;;;21.50;;
35847;SDS011;22332;51.954;20.118;2024-03-22T06:33:53;29.80;;;21.40;;
35847;SDS011;22332;51.954;20.118;2024-03-22T06:36:59;31.60;;;22.70;;
35847;SDS011;22332;51.954;20.118;2024-03-22T06:40:05;24.90;;;18.80;;
35847;SDS011;22332;51.954;20.118;2024-03-22T06:43:12;23.90;;;17.50;;
35847;SDS011;22332;51.954;20.118;2024-03-22T06:46:17;21.40;;;15.80;;
35847;SDS011;22332;51.954;20.118;2024-03-22T06:49:22;21.80;;;16.20;;
35847;SDS011;22332;51.954;20.118;2024-03-22T06:52:27;22.10;;;15.90;;
35847;SDS011;22332;51.954;20.118;2024-03-22T06:55:33;38.70;;;21.80;;
35847;SDS011;22332;51.954;20.118;2024-03-22T06:58:38;47.70;;;25.50;;
35847;SDS011;22332;51.954;20.118;2024-03-22T07:01:43;42.90;;;24.00;;
35847;SDS011;22332;51.954;20.118;2024-03-22T07:04:48;24.90;;;16.40;;
35847;SDS011;22332;51.954;20.118;2024-03-22T07:07:54;20.90;;;15.10;;
35847;SDS011;22332;51.954;20.118;2024-03-22T07:11:00;25.60;;;17.40;;
35847;SDS011;22332;51.954;20.118;2024-03-22T07:14:11;28.90;;;19.60;;
35847;SDS011;22332;51.954;20.118;2024-03-22T07:17:16;24.30;;;17.00;;
35847;SDS011;22332;51.954;20.118;2024-03-22T07:20:26;25.90;;;18.90;;
35847;SDS011;22332;51.954;20.118;2024-03-22T07:23:31;24.90;;;17.00;;
35847;SDS011;22332;51.954;20.118;2024-03-22T07:26:36;21.90;;;13.40;;
35847;SDS011;22332;51.954;20.118;2024-03-22T07:29:42;19.90;;;14.70;;
35847;SDS011;22332;51.954;20.118;2024-03-22T07:32:47;17.70;;;13.50;;
35847;SDS011;22332;51.954;20.118;2024-03-22T07:35:52;19.50;;;14.10;;
35847;SDS011;22332;51.954;20.118;2024-03-22T07:38:57;19.30;;;13.90;;
35847;SDS011;22332;51.954;20.118;2024-03-22T07:42:03;18.10;;;14.20;;
35847;SDS011;22332;51.954;20.118;2024-03-22T07:45:09;18.60;;;13.10;;
35847;SDS011;22332;51.954;20.118;2024-03-22T07:48:14;24.20;;;15.50;;
35847;SDS011;22332;51.954;20.118;2024-03-22T07:51:19;17.00;;;13.10;;
35847;SDS011;22332;51.954;20.118;2024-03-22T07:54:25;17.70;;;13.10;;
35847;SDS011;22332;51.954;20.118;2024-03-22T07:57:30;15.80;;;12.00;;
35847;SDS011;22332;51.954;20.118;2024-03-22T08:00:35;16.40;;;12.70;;
35847;SDS011;22332;51.954;20.118;2024-03-22T08:03:40;17.60;;;13.20;;
35847;SDS011;22332;51.954;20.118;2024-03-22T08:06:45;19.40;;;14.20;;
35847;SDS011;22332;51.954;20.118;2024-03-22T08:09:50;18.10;;;13.50;;
35847;SDS011;22332;51.954;20.118;2024-03-22T08:12:58;16.90;;;12.20;;
35847;SDS011;22332;51.954;20.118;2024-03-22T08:16:04;17.50;;;12.80;;
35847;SDS011;22332;51.954;20.118;2024-03-22T08:19:10;65.90;;;45.70;;
35847;SDS011;22332;51.954;20.118;2024-03-22T08:22:15;131.30;;;70.80;;
35847;SDS011;22332;51.954;20.118;2024-03-22T08:25:21;39.50;;;27.30;;
35847;SDS011;22332;51.954;20.118;2024-03-22T08:28:27;31.60;;;27.00;;
35847;SDS011;22332;51.954;20.118;2024-03-22T08:31:33;26.00;;;17.20;;
35847;SDS011;22332;51.954;20.118;2024-03-22T08:34:38;21.90;;;14.70;;
35847;SDS011;22332;51.954;20.118;2024-03-22T08:37:43;20.00;;;14.70;;
35847;SDS011;22332;51.954;20.118;2024-03-22T08:40:48;19.40;;;13.30;;
35847;SDS011;22332;51.954;20.118;2024-03-22T08:43:53;63.10;;;30.30;;
35847;SDS011;22332;51.954;20.118;2024-03-22T08:46:59;52.90;;;31.10;;
35847;SDS011;22332;51.954;20.118;2024-03-22T08:50:05;25.40;;;16.80;;
35847;SDS011;22332;51.954;20.118;2024-03-22T08:53:10;51.20;;;28.70;;
35847;SDS011;22332;51.954;20.118;2024-03-22T08:56:16;15.90;;;11.60;;
35847;SDS011;22332;51.954;20.118;2024-03-22T08:59:21;14.90;;;10.70;;
35847;SDS011;22332;51.954;20.118;2024-03-22T09:02:27;12.90;;;9.70;;
35847;SDS011;22332;51.954;20.118;2024-03-22T09:05:32;19.20;;;13.10;;
35847;SDS011;22332;51.954;20.118;2024-03-22T09:08:37;13.20;;;9.20;;
35847;SDS011;22332;51.954;20.118;2024-03-22T09:11:42;12.60;;;9.40;;
35847;SDS011;22332;51.954;20.118;2024-03-22T09:14:48;12.50;;;9.50;;
35847;SDS011;22332;51.954;20.118;2024-03-22T09:17:53;12.60;;;8.90;;
35847;SDS011;22332;51.954;20.118;2024-03-22T09:20:58;12.10;;;8.60;;
35847;SDS011;22332;51.954;20.118;2024-03-22T09:24:03;14.90;;;10.70;;
35847;SDS011;22332;51.954;20.118;2024-03-22T09:27:09;14.60;;;10.00;;
35847;SDS011;22332;51.954;20.118;2024-03-22T09:30:14;15.50;;;11.10;;
35847;SDS011;22332;51.954;20.118;2024-03-22T09:33:20;14.00;;;9.80;;
35847;SDS011;22332;51.954;20.118;2024-03-22T09:36:25;12.70;;;9.40;;
35847;SDS011;22332;51.954;20.118;2024-03-22T09:39:33;14.70;;;10.80;;
35847;SDS011;22332;51.954;20.118;2024-03-22T09:42:38;14.50;;;9.40;;
35847;SDS011;22332;51.954;20.118;2024-03-22T09:45:44;13.50;;;10.10;;
35847;SDS011;22332;51.954;20.118;2024-03-22T09:48:50;12.50;;;9.50;;
35847;SDS011;22332;51.954;20.118;2024-03-22T09:51:57;108.50;;;53.60;;
35847;SDS011;22332;51.954;20.118;2024-03-22T09:55:03;38.40;;;18.30;;
35847;SDS011;22332;51.954;20.118;2024-03-22T09:58:10;36.40;;;22.20;;
35847;SDS011;22332;51.954;20.118;2024-03-22T10:01:17;15.80;;;10.80;;
35847;SDS011;22332;51.954;20.118;2024-03-22T10:04:22;13.20;;;9.60;;
35847;SDS011;22332;51.954;20.118;2024-03-22T10:07:28;55.00;;;23.60;;
35847;SDS011;22332;51.954;20.118;2024-03-22T10:10:34;18.40;;;11.10;;
35847;SDS011;22332;51.954;20.118;2024-03-22T10:13:39;101.50;;;47.20;;
35847;SDS011;22332;51.954;20.118;2024-03-22T10:16:44;20.60;;;13.40;;
35847;SDS011;22332;51.954;20.118;2024-03-22T10:19:49;30.90;;;17.80;;
35847;SDS011;22332;51.954;20.118;2024-03-22T10:22:56;31.10;;;19.60;;
35847;SDS011;22332;51.954;20.118;2024-03-22T10:26:02;24.30;;;14.40;;
35847;SDS011;22332;51.954;20.118;2024-03-22T10:29:10;60.70;;;37.30;;
35847;SDS011;22332;51.954;20.118;2024-03-22T10:32:16;23.20;;;17.30;;
35847;SDS011;22332;51.954;20.118;2024-03-22T10:35:22;16.90;;;13.30;;
35847;SDS011;22332;51.954;20.118;2024-03-22T10:38:29;27.00;;;18.80;;
35847;SDS011;22332;51.954;20.118;2024-03-22T10:41:35;62.70;;;32.00;;
35847;SDS011;22332;51.954;20.118;2024-03-22T10:44:41;18.10;;;11.50;;
35847;SDS011;22332;51.954;20.118;2024-03-22T10:47:46;15.60;;;11.50;;
35847;SDS011;22332;51.954;20.118;2024-03-22T10:50:52;20.30;;;14.10;;
35847;SDS011;22332;51.954;20.118;2024-03-22T10:54:04;18.30;;;11.90;;
35847;SDS011;22332;51.954;20.118;2024-03-22T10:57:12;15.70;;;11.60;;
35847;SDS011;22332;51.954;20.118;2024-03-22T11:00:27;14.50;;;11.00;;
35847;SDS011;22332;51.954;20.118;2024-03-22T11:03:35;28.30;;;18.50;;
35847;SDS011;22332;51.954;20.118;2024-03-22T11:06:40;25.20;;;18.40;;
35847;SDS011;22332;51.954;20.118;2024-03-22T11:09:52;24.70;;;17.30;;
35847;SDS011;22332;51.954;20.118;2024-03-22T11:13:01;18.20;;;12.90;;
35847;SDS011;22332;51.954;20.118;2024-03-22T11:16:10;18.00;;;12.90;;
35847;SDS011;22332;51.954;20.118;2024-03-22T11:19:15;23.20;;;14.20;;
35847;SDS011;22332;51.954;20.118;2024-03-22T11:22:20;22.10;;;14.10;;
35847;SDS011;22332;51.954;20.118;2024-03-22T11:25:25;16.40;;;11.70;;
35847;SDS011;22332;51.954;20.118;2024-03-22T11:28:30;13.20;;;10.90;;
35847;SDS011;22332;51.954;20.118;2024-03-22T11:31:36;29.50;;;13.80;;
35847;SDS011;22332;51.954;20.118;2024-03-22T11:34:41;25.70;;;13.00;;
35847;SDS011;22332;51.954;20.118;2024-03-22T11:37:50;19.90;;;12.80;;
35847;SDS011;22332;51.954;20.118;2024-03-22T11:40:55;20.30;;;12.80;;
35847;SDS011;22332;51.954;20.118;2024-03-22T11:44:03;21.50;;;13.10;;
35847;SDS011;22332;51.954;20.118;2024-03-22T11:47:09;23.30;;;15.50;;
35847;SDS011;22332;51.954;20.118;2024-03-22T11:50:14;17.20;;;12.00;;
35847;SDS011;22332;51.954;20.118;2024-03-22T11:53:20;16.50;;;11.70;;
35847;SDS011;22332;51.954;20.118;2024-03-22T11:56:25;20.90;;;13.30;;
35847;SDS011;22332;51.954;20.118;2024-03-22T11:59:30;22.60;;;13.80;;
35847;SDS011;22332;51.954;20.118;2024-03-22T12:02:36;15.30;;;11.60;;
35847;SDS011;22332;51.954;20.118;2024-03-22T12:05:41;15.80;;;11.70;;
35847;SDS011;22332;51.954;20.118;2024-03-22T12:08:47;15.00;;;11.20;;
35847;SDS011;22332;51.954;20.118;2024-03-22T12:11:53;15.70;;;12.10;;
35847;SDS011;22332;51.954;20.118;2024-03-22T12:15:00;14.70;;;11.20;;
35847;SDS011;22332;51.954;20.118;2024-03-22T12:18:05;14.60;;;11.80;;
35847;SDS011;22332;51.954;20.118;2024-03-22T12:21:11;16.30;;;12.40;;
35847;SDS011;22332;51.954;20.118;2024-03-22T12:24:16;15.00;;;12.00;;
35847;SDS011;22332;51.954;20.118;2024-03-22T12:27:21;18.40;;;13.50;;
35847;SDS011;22332;51.954;20.118;2024-03-22T12:30:26;18.60;;;14.20;;
35847;SDS011;22332;51.954;20.118;2024-03-22T12:33:31;18.80;;;13.40;;
35847;SDS011;22332;51.954;20.118;2024-03-22T12:36:36;18.70;;;13.20;;
35847;SDS011;22332;51.954;20.118;2024-03-22T12:39:42;24.40;;;16.00;;
35847;SDS011;22332;51.954;20.118;2024-03-22T12:42:47;19.00;;;13.40;;
35847;SDS011;22332;51.954;20.118;2024-03-22T12:45:52;17.60;;;13.70;;
35847;SDS011;22332;51.954;20.118;2024-03-22T12:48:57;19.80;;;15.00;;
35847;SDS011;22332;51.954;20.118;2024-03-22T12:52:03;18.30;;;14.70;;
35847;SDS011;22332;51.954;20.118;2024-03-22T12:55:09;19.20;;;14.70;;
35847;SDS011;22332;51.954;20.118;2024-03-22T12:58:14;18.70;;;14.10;;
35847;SDS011;22332;51.954;20.118;2024-03-22T13:01:20;19.40;;;14.20;;
35847;SDS011;22332;51.954;20.118;2024-03-22T13:04:25;16.70;;;13.30;;
35847;SDS011;22332;51.954;20.118;2024-03-22T13:07:30;16.50;;;12.40;;
35847;SDS011;22332;51.954;20.118;2024-03-22T13:10:35;16.50;;;13.10;;
35847;SDS011;22332;51.954;20.118;2024-03-22T13:13:45;16.30;;;12.00;;
35847;SDS011;22332;51.954;20.118;2024-03-22T13:16:50;21.50;;;15.60;;
35847;SDS011;22332;51.954;20.118;2024-03-22T13:19:55;21.60;;;15.50;;
35847;SDS011;22332;51.954;20.118;2024-03-22T13:23:02;17.20;;;13.40;;
35847;SDS011;22332;51.954;20.118;2024-03-22T13:26:08;17.10;;;13.30;;
35847;SDS011;22332;51.954;20.118;2024-03-22T13:29:14;22.70;;;16.00;;
35847;SDS011;22332;51.954;20.118;2024-03-22T13:32:19;16.80;;;12.80;;
35847;SDS011;22332;51.954;20.118;2024-03-22T13:35:24;14.40;;;11.50;;
35847;SDS011;22332;51.954;20.118;2024-03-22T13:38:29;51.20;;;26.40;;
35847;SDS011;22332;51.954;20.118;2024-03-22T13:41:34;20.90;;;16.10;;
35847;SDS011;22332;51.954;20.118;2024-03-22T13:44:41;70.80;;;41.70;;
35847;SDS011;22332;51.954;20.118;2024-03-22T13:47:46;72.30;;;47.90;;
35847;SDS011;22332;51.954;20.118;2024-03-22T13:50:52;121.20;;;81.40;;
35847;SDS011;22332;51.954;20.118;2024-03-22T13:53:58;180.60;;;105.20;;
35847;SDS011;22332;51.954;20.118;2024-03-22T13:57:03;73.90;;;45.80;;
35847;SDS011;22332;51.954;20.118;2024-03-22T14:00:09;126.40;;;78.90;;
35847;SDS011;22332;51.954;20.118;2024-03-22T14:03:17;88.60;;;52.90;;
35847;SDS011;22332;51.954;20.118;2024-03-22T14:06:22;372.90;;;233.10;;
35847;SDS011;22332;51.954;20.118;2024-03-22T14:09:27;114.00;;;69.30;;
35847;SDS011;22332;51.954;20.118;2024-03-22T14:12:33;92.60;;;58.90;;
35847;SDS011;22332;51.954;20.118;2024-03-22T14:15:38;40.20;;;26.90;;
35847;SDS011;22332;51.954;20.118;2024-03-22T14:18:43;26.70;;;19.10;;
35847;SDS011;22332;51.954;20.118;2024-03-22T14:21:48;43.80;;;31.50;;
35847;SDS011;22332;51.954;20.118;2024-03-22T14:24:53;33.00;;;23.70;;
35847;SDS011;22332;51.954;20.118;2024-03-22T14:27:58;29.00;;;20.80;;
35847;SDS011;22332;51.954;20.118;2024-03-22T14:31:04;25.00;;;18.80;;
35847;SDS011;22332;51.954;20.118;2024-03-22T14:34:10;26.30;;;17.30;;
35847;SDS011;22332;51.954;20.118;2024-03-22T14:37:16;80.10;;;39.00;;
35847;SDS011;22332;51.954;20.118;2024-03-22T14:40:21;180.50;;;80.30;;
35847;SDS011;22332;51.954;20.118;2024-03-22T14:43:27;298.30;;;144.80;;
35847;SDS011;22332;51.954;20.118;2024-03-22T14:46:33;158.90;;;76.20;;
35847;SDS011;22332;51.954;20.118;2024-03-22T14:49:38;196.70;;;78.60;;
35847;SDS011;22332;51.954;20.118;2024-03-22T14:52:45;260.70;;;130.00;;
35847;SDS011;22332;51.954;20.118;2024-03-22T14:55:53;147.60;;;83.70;;
35847;SDS011;22332;51.954;20.118;2024-03-22T14:59:01;209.80;;;110.40;;
35847;SDS011;22332;51.954;20.118;2024-03-22T15:02:06;318.90;;;180.70;;
35847;SDS011;22332;51.954;20.118;2024-03-22T15:05:12;223.70;;;121.80;;
35847;SDS011;22332;51.954;20.118;2024-03-22T15:08:18;312.10;;;173.00;;
35847;SDS011;22332;51.954;20.118;2024-03-22T15:11:24;140.00;;;77.60;;
35847;SDS011;22332;51.954;20.118;2024-03-22T15:14:31;118.50;;;69.30;;
35847;SDS011;22332;51.954;20.118;2024-03-22T15:17:36;230.60;;;118.00;;
35847;SDS011;22332;51.954;20.118;2024-03-22T15:20:41;235.60;;;119.00;;
35847;SDS011;22332;51.954;20.118;2024-03-22T15:23:47;154.20;;;79.70;;
35847;SDS011;22332;51.954;20.118;2024-03-22T15:26:52;77.90;;;45.50;;
35847;SDS011;22332;51.954;20.118;2024-03-22T15:29:58;60.60;;;39.00;;
35847;SDS011;22332;51.954;20.118;2024-03-22T15:33:03;41.00;;;28.10;;
35847;SDS011;22332;51.954;20.118;2024-03-22T15:36:09;45.20;;;32.50;;
35847;SDS011;22332;51.954;20.118;2024-03-22T15:39:15;28.40;;;20.70;;
35847;SDS011;22332;51.954;20.118;2024-03-22T15:42:22;30.90;;;21.90;;
35847;SDS011;22332;51.954;20.118;2024-03-22T15:45:27;27.20;;;20.90;;
35847;SDS011;22332;51.954;20.118;2024-03-22T15:48:36;38.10;;;28.60;;
35847;SDS011;22332;51.954;20.118;2024-03-22T15:51:41;36.20;;;26.50;;
35847;SDS011;22332;51.954;20.118;2024-03-22T15:54:47;24.00;;;18.40;;
35847;SDS011;22332;51.954;20.118;2024-03-22T15:57:53;24.70;;;18.70;;
35847;SDS011;22332;51.954;20.118;2024-03-22T16:00:58;20.30;;;15.80;;
35847;SDS011;22332;51.954;20.118;2024-03-22T16:04:04;18.80;;;14.80;;
35847;SDS011;22332;51.954;20.118;2024-03-22T16:07:10;18.20;;;13.70;;
35847;SDS011;22332;51.954;20.118;2024-03-22T16:10:16;16.00;;;12.00;;
35847;SDS011;22332;51.954;20.118;2024-03-22T16:13:22;20.20;;;14.30;;
35847;SDS011;22332;51.954;20.118;2024-03-22T16:16:29;238.70;;;95.20;;
35847;SDS011;22332;51.954;20.118;2024-03-22T16:19:34;82.60;;;36.90;;
35847;SDS011;22332;51.954;20.118;2024-03-22T16:22:42;145.20;;;62.80;;
35847;SDS011;22332;51.954;20.118;2024-03-22T16:25:50;71.70;;;34.30;;
35847;SDS011;22332;51.954;20.118;2024-03-22T16:28:56;70.00;;;34.70;;
35847;SDS011;22332;51.954;20.118;2024-03-22T16:32:01;91.20;;;47.60;;
35847;SDS011;22332;51.954;20.118;2024-03-22T16:35:08;92.30;;;47.70;;
35847;SDS011;22332;51.954;20.118;2024-03-22T16:38:13;79.80;;;41.70;;
35847;SDS011;22332;51.954;20.118;2024-03-22T16:41:18;52.30;;;30.50;;
35847;SDS011;22332;51.954;20.118;2024-03-22T16:44:23;110.20;;;56.60;;
35847;SDS011;22332;51.954;20.118;2024-03-22T16:47:29;29.70;;;18.00;;
35847;SDS011;22332;51.954;20.118;2024-03-22T16:50:34;51.40;;;29.60;;
35847;SDS011;22332;51.954;20.118;2024-03-22T16:53:39;71.80;;;40.00;;
35847;SDS011;22332;51.954;20.118;2024-03-22T16:56:45;32.40;;;20.10;;
35847;SDS011;22332;51.954;20.118;2024-03-22T16:59:50;31.60;;;20.70;;
35847;SDS011;22332;51.954;20.118;2024-03-22T17:02:55;38.40;;;23.00;;
35847;SDS011;22332;51.954;20.118;2024-03-22T17:06:00;40.50;;;25.30;;
35847;SDS011;22332;51.954;20.118;2024-03-22T17:09:07;33.50;;;21.80;;
35847;SDS011;22332;51.954;20.118;2024-03-22T17:12:13;30.60;;;19.70;;
35847;SDS011;22332;51.954;20.118;2024-03-22T17:15:18;31.40;;;19.40;;
35847;SDS011;22332;51.954;20.118;2024-03-22T17:18:24;68.90;;;37.70;;
35847;SDS011;22332;51.954;20.118;2024-03-22T17:21:30;75.60;;;37.70;;
35847;SDS011;22332;51.954;20.118;2024-03-22T17:24:35;32.10;;;19.50;;
35847;SDS011;22332;51.954;20.118;2024-03-22T17:27:40;43.10;;;24.30;;
35847;SDS011;22332;51.954;20.118;2024-03-22T17:30:46;31.60;;;20.10;;
35847;SDS011;22332;51.954;20.118;2024-03-22T17:33:52;61.20;;;33.30;;
35847;SDS011;22332;51.954;20.118;2024-03-22T17:36:58;60.00;;;34.50;;
35847;SDS011;22332;51.954;20.118;2024-03-22T17:40:05;117.80;;;61.30;;
35847;SDS011;22332;51.954;20.118;2024-03-22T17:43:12;85.30;;;43.10;;
35847;SDS011;22332;51.954;20.118;2024-03-22T17:46:18;350.60;;;168.10;;
35847;SDS011;22332;51.954;20.118;2024-03-22T17:49:25;166.20;;;84.80;;